sensor_id;sensor_type;location;lat;lon;timestamp;temperature;humidity
19174;DHT22;9719;49.322;8.536;2023-04-25T00:00:56;11.60;99.90
19174;DHT22;9719;49.322;8.536;2023-04-25T00:05:59;11.60;99.90
19174;DHT22;9719;49.322;8.536;2023-04-25T00:11:03;11.60;99.90
19174;DHT22;9719;49.322;8.536;2023-04-25T00:16:05;11.70;99.90
19174;DHT22;9719;49.322;8.536;2023-04-25T00:21:08;11.70;99.90
19174;DHT22;9719;49.322;8.536;2023-04-25T00:26:10;11.80;99.90
19174;DHT22;9719;49.322;8.536;2023-04-25T00:31:12;11.80;99.90
19174;DHT22;9719;49.322;8.536;2023-04-25T00:36:15;11.80;99.90
19174;DHT22;9719;49.322;8.536;2023-04-25T00:41:17;11.80;99.90
19174;DHT22;9719;49.322;8.536;2023-04-25T00:46:19;11.80;99.90
19174;DHT22;9719;49.322;8.536;2023-04-25T00:51:22;11.70;99.90
19174;DHT22;9719;49.322;8.536;2023-04-25T00:56:25;11.70;99.90
19174;DHT22;9719;49.322;8.536;2023-04-25T01:01:27;11.70;99.90
19174;DHT22;9719;49.322;8.536;2023-04-25T01:06:31;11.70;99.90
19174;DHT22;9719;49.322;8.536;2023-04-25T01:11:33;11.70;99.90
19174;DHT22;9719;49.322;8.536;2023-04-25T01:16:35;11.70;99.90
19174;DHT22;9719;49.322;8.536;2023-04-25T01:21:39;11.70;99.90
19174;DHT22;9719;49.322;8.536;2023-04-25T01:26:41;11.60;99.90
19174;DHT22;9719;49.322;8.536;2023-04-25T01:31:44;11.60;99.90
19174;DHT22;9719;49.322;8.536;2023-04-25T01:36:49;11.50;99.90
19174;DHT22;9719;49.322;8.536;2023-04-25T01:41:51;11.40;99.90
19174;DHT22;9719;49.322;8.536;2023-04-25T01:46:53;11.40;99.90
19174;DHT22;9719;49.322;8.536;2023-04-25T01:51:56;11.40;99.90
19174;DHT22;9719;49.322;8.536;2023-04-25T01:56:58;11.40;99.90
19174;DHT22;9719;49.322;8.536;2023-04-25T02:02:00;11.40;99.90
19174;DHT22;9719;49.322;8.536;2023-04-25T02:07:05;11.30;99.90
19174;DHT22;9719;49.322;8.536;2023-04-25T02:12:08;11.30;99.90
19174;DHT22;9719;49.322;8.536;2023-04-25T02:17:10;11.30;99.90
19174;DHT22;9719;49.322;8.536;2023-04-25T02:22:14;11.20;99.90
19174;DHT22;9719;49.322;8.536;2023-04-25T02:27:15;11.10;99.90
19174;DHT22;9719;49.322;8.536;2023-04-25T02:32:17;11.00;99.90
19174;DHT22;9719;49.322;8.536;2023-04-25T02:37:20;10.90;99.90
19174;DHT22;9719;49.322;8.536;2023-04-25T02:42:22;10.80;99.90
19174;DHT22;9719;49.322;8.536;2023-04-25T02:47:23;10.80;99.90
19174;DHT22;9719;49.322;8.536;2023-04-25T02:52:26;10.70;99.90
19174;DHT22;9719;49.322;8.536;2023-04-25T02:57:28;10.60;99.90
19174;DHT22;9719;49.322;8.536;2023-04-25T03:02:30;10.60;99.90
19174;DHT22;9719;49.322;8.536;2023-04-25T03:07:33;10.50;99.90
19174;DHT22;9719;49.322;8.536;2023-04-25T03:12:34;10.50;99.90
19174;DHT22;9719;49.322;8.536;2023-04-25T03:17:36;10.50;99.90
19174;DHT22;9719;49.322;8.536;2023-04-25T03:22:39;10.50;99.90
19174;DHT22;9719;49.322;8.536;2023-04-25T03:27:41;10.60;99.90
19174;DHT22;9719;49.322;8.536;2023-04-25T03:32:43;10.60;99.90
19174;DHT22;9719;49.322;8.536;2023-04-25T03:37:46;10.60;99.90
19174;DHT22;9719;49.322;8.536;2023-04-25T03:42:47;10.60;99.90
19174;DHT22;9719;49.322;8.536;2023-04-25T03:47:49;10.70;99.90
19174;DHT22;9719;49.322;8.536;2023-04-25T03:52:52;10.70;99.90
19174;DHT22;9719;49.322;8.536;2023-04-25T03:57:54;10.70;99.90
19174;DHT22;9719;49.322;8.536;2023-04-25T04:02:55;10.80;99.90
19174;DHT22;9719;49.322;8.536;2023-04-25T04:07:58;10.80;99.90
19174;DHT22;9719;49.322;8.536;2023-04-25T04:13:00;10.90;99.90
19174;DHT22;9719;49.322;8.536;2023-04-25T04:18:02;10.90;99.90
19174;DHT22;9719;49.322;8.536;2023-04-25T04:23:05;10.80;99.90
19174;DHT22;9719;49.322;8.536;2023-04-25T04:28:06;10.80;99.90
19174;DHT22;9719;49.322;8.536;2023-04-25T04:33:08;10.70;99.90
19174;DHT22;9719;49.322;8.536;2023-04-25T04:38:11;10.80;99.90
19174;DHT22;9719;49.322;8.536;2023-04-25T04:43:14;10.70;99.90
19174;DHT22;9719;49.322;8.536;2023-04-25T04:48:17;10.70;99.90
19174;DHT22;9719;49.322;8.536;2023-04-25T04:53:20;10.80;99.90
19174;DHT22;9719;49.322;8.536;2023-04-25T04:58:22;10.90;99.90
19174;DHT22;9719;49.322;8.536;2023-04-25T05:03:24;10.90;99.90
19174;DHT22;9719;49.322;8.536;2023-04-25T05:08:27;11.00;99.90
19174;DHT22;9719;49.322;8.536;2023-04-25T05:13:28;11.10;99.90
19174;DHT22;9719;49.322;8.536;2023-04-25T05:18:31;11.20;99.90
19174;DHT22;9719;49.322;8.536;2023-04-25T05:23:34;11.30;99.90
19174;DHT22;9719;49.322;8.536;2023-04-25T05:28:36;11.40;99.90
19174;DHT22;9719;49.322;8.536;2023-04-25T05:33:38;11.50;99.90
19174;DHT22;9719;49.322;8.536;2023-04-25T05:38:41;11.70;99.90
19174;DHT22;9719;49.322;8.536;2023-04-25T05:43:43;11.80;99.90
19174;DHT22;9719;49.322;8.536;2023-04-25T05:48:47;11.90;99.90
19174;DHT22;9719;49.322;8.536;2023-04-25T05:53:50;11.90;99.90
19174;DHT22;9719;49.322;8.536;2023-04-25T05:58:51;11.90;99.90
19174;DHT22;9719;49.322;8.536;2023-04-25T06:03:53;12.00;99.90
19174;DHT22;9719;49.322;8.536;2023-04-25T06:08:56;12.00;99.90
19174;DHT22;9719;49.322;8.536;2023-04-25T06:13:58;12.00;99.90
19174;DHT22;9719;49.322;8.536;2023-04-25T06:18:59;12.00;99.90
19174;DHT22;9719;49.322;8.536;2023-04-25T06:24:03;11.90;99.90
19174;DHT22;9719;49.322;8.536;2023-04-25T06:29:05;11.90;99.90
19174;DHT22;9719;49.322;8.536;2023-04-25T06:34:06;12.00;99.90
19174;DHT22;9719;49.322;8.536;2023-04-25T06:39:09;12.00;99.90
19174;DHT22;9719;49.322;8.536;2023-04-25T06:44:11;12.30;99.90
19174;DHT22;9719;49.322;8.536;2023-04-25T06:49:13;12.40;99.90
19174;DHT22;9719;49.322;8.536;2023-04-25T06:54:16;12.60;99.90
19174;DHT22;9719;49.322;8.536;2023-04-25T06:59:17;12.60;99.90
19174;DHT22;9719;49.322;8.536;2023-04-25T07:04:19;12.60;99.90
19174;DHT22;9719;49.322;8.536;2023-04-25T07:09:22;12.60;99.90
19174;DHT22;9719;49.322;8.536;2023-04-25T07:14:24;12.70;99.90
19174;DHT22;9719;49.322;8.536;2023-04-25T07:19:26;12.60;99.90
19174;DHT22;9719;49.322;8.536;2023-04-25T07:24:31;12.60;99.90
19174;DHT22;9719;49.322;8.536;2023-04-25T07:29:33;12.20;99.90
19174;DHT22;9719;49.322;8.536;2023-04-25T07:34:37;11.80;99.90
19174;DHT22;9719;49.322;8.536;2023-04-25T07:39:40;11.50;99.90
19174;DHT22;9719;49.322;8.536;2023-04-25T07:44:42;11.50;99.90
19174;DHT22;9719;49.322;8.536;2023-04-25T07:49:43;11.60;99.90
19174;DHT22;9719;49.322;8.536;2023-04-25T07:54:46;11.80;99.90
19174;DHT22;9719;49.322;8.536;2023-04-25T07:59:48;11.90;99.90
19174;DHT22;9719;49.322;8.536;2023-04-25T08:04:50;11.80;99.90
19174;DHT22;9719;49.322;8.536;2023-04-25T08:09:54;11.90;99.90
19174;DHT22;9719;49.322;8.536;2023-04-25T08:14:55;11.80;99.90
19174;DHT22;9719;49.322;8.536;2023-04-25T08:19:57;11.90;99.90
19174;DHT22;9719;49.322;8.536;2023-04-25T08:25:00;12.00;99.90
19174;DHT22;9719;49.322;8.536;2023-04-25T08:30:02;12.10;99.90
19174;DHT22;9719;49.322;8.536;2023-04-25T08:35:04;12.20;99.90
19174;DHT22;9719;49.322;8.536;2023-04-25T08:40:11;12.20;99.90
19174;DHT22;9719;49.322;8.536;2023-04-25T08:45:13;12.60;99.90
19174;DHT22;9719;49.322;8.536;2023-04-25T08:50:15;12.80;99.90
19174;DHT22;9719;49.322;8.536;2023-04-25T08:55:21;13.10;99.90
19174;DHT22;9719;49.322;8.536;2023-04-25T09:00:22;13.20;99.90
19174;DHT22;9719;49.322;8.536;2023-04-25T09:05:24;13.30;99.90
19174;DHT22;9719;49.322;8.536;2023-04-25T09:10:28;13.20;99.90
19174;DHT22;9719;49.322;8.536;2023-04-25T09:15:31;13.10;99.90
19174;DHT22;9719;49.322;8.536;2023-04-25T09:20:41;13.10;99.90
19174;DHT22;9719;49.322;8.536;2023-04-25T09:25:44;13.50;99.90
19174;DHT22;9719;49.322;8.536;2023-04-25T09:30:48;14.10;99.90
19174;DHT22;9719;49.322;8.536;2023-04-25T09:35:49;14.50;99.90
19174;DHT22;9719;49.322;8.536;2023-04-25T09:40:56;14.90;99.90
19174;DHT22;9719;49.322;8.536;2023-04-25T09:45:58;15.00;99.90
19174;DHT22;9719;49.322;8.536;2023-04-25T09:51:05;14.90;99.90
19174;DHT22;9719;49.322;8.536;2023-04-25T09:56:10;15.00;99.90
19174;DHT22;9719;49.322;8.536;2023-04-25T10:01:12;15.30;99.90
19174;DHT22;9719;49.322;8.536;2023-04-25T10:06:17;15.60;99.90
19174;DHT22;9719;49.322;8.536;2023-04-25T10:11:23;15.70;99.90
19174;DHT22;9719;49.322;8.536;2023-04-25T10:16:26;15.90;99.90
19174;DHT22;9719;49.322;8.536;2023-04-25T10:21:31;15.60;99.90
19174;DHT22;9719;49.322;8.536;2023-04-25T10:26:36;15.30;99.90
19174;DHT22;9719;49.322;8.536;2023-04-25T10:31:45;15.40;99.90
19174;DHT22;9719;49.322;8.536;2023-04-25T10:36:50;15.60;99.90
19174;DHT22;9719;49.322;8.536;2023-04-25T10:41:56;15.90;99.90
19174;DHT22;9719;49.322;8.536;2023-04-25T10:46:59;16.10;99.90
19174;DHT22;9719;49.322;8.536;2023-04-25T10:52:14;16.10;99.90
19174;DHT22;9719;49.322;8.536;2023-04-25T10:57:37;16.10;99.10
19174;DHT22;9719;49.322;8.536;2023-04-25T11:02:43;16.20;97.50
19174;DHT22;9719;49.322;8.536;2023-04-25T11:07:51;16.40;95.60
19174;DHT22;9719;49.322;8.536;2023-04-25T11:12:56;16.50;93.80
19174;DHT22;9719;49.322;8.536;2023-04-25T11:17:58;16.30;96.80
19174;DHT22;9719;49.322;8.536;2023-04-25T11:23:00;16.20;97.00
19174;DHT22;9719;49.322;8.536;2023-04-25T11:28:04;16.20;96.90
19174;DHT22;9719;49.322;8.536;2023-04-25T11:33:05;16.20;95.60
19174;DHT22;9719;49.322;8.536;2023-04-25T11:38:07;15.90;94.40
19174;DHT22;9719;49.322;8.536;2023-04-25T11:43:10;16.10;93.10
19174;DHT22;9719;49.322;8.536;2023-04-25T11:48:12;16.70;94.70
19174;DHT22;9719;49.322;8.536;2023-04-25T11:53:13;16.90;93.10
19174;DHT22;9719;49.322;8.536;2023-04-25T11:58:16;16.80;91.60
19174;DHT22;9719;49.322;8.536;2023-04-25T12:03:19;16.70;90.40
19174;DHT22;9719;49.322;8.536;2023-04-25T12:08:24;16.70;91.70
19174;DHT22;9719;49.322;8.536;2023-04-25T12:13:27;16.70;91.00
19174;DHT22;9719;49.322;8.536;2023-04-25T12:18:29;16.60;92.70
19174;DHT22;9719;49.322;8.536;2023-04-25T12:23:30;16.40;92.10
19174;DHT22;9719;49.322;8.536;2023-04-25T12:28:33;16.60;92.80
19174;DHT22;9719;49.322;8.536;2023-04-25T12:33:36;16.80;92.50
19174;DHT22;9719;49.322;8.536;2023-04-25T12:38:39;16.80;92.10
19174;DHT22;9719;49.322;8.536;2023-04-25T12:43:42;16.90;90.70
19174;DHT22;9719;49.322;8.536;2023-04-25T12:48:44;17.30;91.60
19174;DHT22;9719;49.322;8.536;2023-04-25T12:53:45;17.60;90.20
19174;DHT22;9719;49.322;8.536;2023-04-25T12:58:48;17.80;90.30
19174;DHT22;9719;49.322;8.536;2023-04-25T13:03:50;18.20;90.50
19174;DHT22;9719;49.322;8.536;2023-04-25T13:08:52;18.00;85.00
19174;DHT22;9719;49.322;8.536;2023-04-25T13:13:56;17.90;83.50
19174;DHT22;9719;49.322;8.536;2023-04-25T13:18:58;17.60;81.60
19174;DHT22;9719;49.322;8.536;2023-04-25T13:23:59;17.60;83.30
19174;DHT22;9719;49.322;8.536;2023-04-25T13:29:02;17.30;82.00
19174;DHT22;9719;49.322;8.536;2023-04-25T13:34:04;17.30;80.60
19174;DHT22;9719;49.322;8.536;2023-04-25T13:39:06;17.40;82.00
19174;DHT22;9719;49.322;8.536;2023-04-25T13:44:09;17.50;82.50
19174;DHT22;9719;49.322;8.536;2023-04-25T13:49:11;17.90;84.00
19174;DHT22;9719;49.322;8.536;2023-04-25T13:54:12;18.20;81.30
19174;DHT22;9719;49.322;8.536;2023-04-25T13:59:15;18.20;79.90
19174;DHT22;9719;49.322;8.536;2023-04-25T14:04:17;17.90;78.30
19174;DHT22;9719;49.322;8.536;2023-04-25T14:09:19;17.60;77.90
19174;DHT22;9719;49.322;8.536;2023-04-25T14:14:27;17.40;78.80
19174;DHT22;9719;49.322;8.536;2023-04-25T14:19:28;17.20;80.30
19174;DHT22;9719;49.322;8.536;2023-04-25T14:24:30;16.60;81.60
19174;DHT22;9719;49.322;8.536;2023-04-25T14:29:33;16.40;82.90
19174;DHT22;9719;49.322;8.536;2023-04-25T14:34:35;16.30;83.20
19174;DHT22;9719;49.322;8.536;2023-04-25T14:39:37;15.90;84.10
19174;DHT22;9719;49.322;8.536;2023-04-25T14:44:40;15.70;85.60
19174;DHT22;9719;49.322;8.536;2023-04-25T14:49:41;15.60;85.50
19174;DHT22;9719;49.322;8.536;2023-04-25T14:54:43;15.50;85.50
19174;DHT22;9719;49.322;8.536;2023-04-25T14:59:46;15.50;85.70
19174;DHT22;9719;49.322;8.536;2023-04-25T15:04:48;15.60;86.70
19174;DHT22;9719;49.322;8.536;2023-04-25T15:09:49;15.60;87.00
19174;DHT22;9719;49.322;8.536;2023-04-25T15:14:54;15.50;86.60
19174;DHT22;9719;49.322;8.536;2023-04-25T15:19:56;15.40;85.10
19174;DHT22;9719;49.322;8.536;2023-04-25T15:24:58;15.40;86.50
19174;DHT22;9719;49.322;8.536;2023-04-25T15:30:01;15.40;86.00
19174;DHT22;9719;49.322;8.536;2023-04-25T15:35:04;15.30;84.90
19174;DHT22;9719;49.322;8.536;2023-04-25T15:40:08;15.50;88.00
19174;DHT22;9719;49.322;8.536;2023-04-25T15:45:12;15.50;85.50
19174;DHT22;9719;49.322;8.536;2023-04-25T15:50:14;15.60;86.80
19174;DHT22;9719;49.322;8.536;2023-04-25T15:55:17;15.50;86.50
19174;DHT22;9719;49.322;8.536;2023-04-25T16:00:21;15.50;87.40
19174;DHT22;9719;49.322;8.536;2023-04-25T16:05:23;15.30;86.30
19174;DHT22;9719;49.322;8.536;2023-04-25T16:10:25;15.10;87.30
19174;DHT22;9719;49.322;8.536;2023-04-25T16:15:28;14.80;86.00
19174;DHT22;9719;49.322;8.536;2023-04-25T16:20:31;14.60;86.00
19174;DHT22;9719;49.322;8.536;2023-04-25T16:25:33;14.40;86.70
19174;DHT22;9719;49.322;8.536;2023-04-25T16:30:36;14.30;88.20
19174;DHT22;9719;49.322;8.536;2023-04-25T16:35:38;14.20;89.50
19174;DHT22;9719;49.322;8.536;2023-04-25T16:40:40;14.10;90.20
19174;DHT22;9719;49.322;8.536;2023-04-25T16:45:43;13.90;89.70
19174;DHT22;9719;49.322;8.536;2023-04-25T16:50:45;13.80;89.70
19174;DHT22;9719;49.322;8.536;2023-04-25T16:55:46;13.70;88.00
19174;DHT22;9719;49.322;8.536;2023-04-25T17:00:49;13.70;88.30
19174;DHT22;9719;49.322;8.536;2023-04-25T17:05:53;13.70;86.10
19174;DHT22;9719;49.322;8.536;2023-04-25T17:10:56;13.70;88.10
19174;DHT22;9719;49.322;8.536;2023-04-25T17:16:00;13.60;89.80
19174;DHT22;9719;49.322;8.536;2023-04-25T17:21:02;13.60;89.20
19174;DHT22;9719;49.322;8.536;2023-04-25T17:26:05;13.60;88.60
19174;DHT22;9719;49.322;8.536;2023-04-25T17:31:08;13.50;90.10
19174;DHT22;9719;49.322;8.536;2023-04-25T17:36:10;13.50;92.90
19174;DHT22;9719;49.322;8.536;2023-04-25T17:41:11;13.40;94.50
19174;DHT22;9719;49.322;8.536;2023-04-25T17:46:15;13.40;95.60
19174;DHT22;9719;49.322;8.536;2023-04-25T17:51:17;13.30;96.60
19174;DHT22;9719;49.322;8.536;2023-04-25T17:56:18;13.20;97.40
19174;DHT22;9719;49.322;8.536;2023-04-25T18:01:22;13.10;98.40
19174;DHT22;9719;49.322;8.536;2023-04-25T18:06:23;12.90;99.50
19174;DHT22;9719;49.322;8.536;2023-04-25T18:11:28;12.70;99.90
19174;DHT22;9719;49.322;8.536;2023-04-25T18:16:31;12.60;99.90
19174;DHT22;9719;49.322;8.536;2023-04-25T18:21:33;12.50;99.90
19174;DHT22;9719;49.322;8.536;2023-04-25T18:26:35;12.50;99.90
19174;DHT22;9719;49.322;8.536;2023-04-25T18:31:38;12.40;99.90
19174;DHT22;9719;49.322;8.536;2023-04-25T18:36:40;12.40;99.90
19174;DHT22;9719;49.322;8.536;2023-04-25T18:41:42;12.30;99.90
19174;DHT22;9719;49.322;8.536;2023-04-25T18:46:45;12.20;99.90
19174;DHT22;9719;49.322;8.536;2023-04-25T18:51:46;12.20;99.90
19174;DHT22;9719;49.322;8.536;2023-04-25T18:56:48;12.10;99.90
19174;DHT22;9719;49.322;8.536;2023-04-25T19:01:53;12.00;99.90
19174;DHT22;9719;49.322;8.536;2023-04-25T19:06:55;12.00;99.90
19174;DHT22;9719;49.322;8.536;2023-04-25T19:11:56;11.90;99.90
19174;DHT22;9719;49.322;8.536;2023-04-25T19:16:59;11.90;99.90
19174;DHT22;9719;49.322;8.536;2023-04-25T19:22:01;11.90;99.90
19174;DHT22;9719;49.322;8.536;2023-04-25T19:27:03;11.90;99.90
19174;DHT22;9719;49.322;8.536;2023-04-25T19:32:06;11.90;99.90
19174;DHT22;9719;49.322;8.536;2023-04-25T19:37:07;11.90;99.90
19174;DHT22;9719;49.322;8.536;2023-04-25T19:42:09;11.90;99.90
19174;DHT22;9719;49.322;8.536;2023-04-25T19:47:12;11.80;99.90
19174;DHT22;9719;49.322;8.536;2023-04-25T19:52:14;11.80;99.90
19174;DHT22;9719;49.322;8.536;2023-04-25T19:57:16;11.80;99.90
19174;DHT22;9719;49.322;8.536;2023-04-25T20:02:19;11.80;99.90
19174;DHT22;9719;49.322;8.536;2023-04-25T20:07:21;11.70;99.90
19174;DHT22;9719;49.322;8.536;2023-04-25T20:12:23;11.70;99.90
19174;DHT22;9719;49.322;8.536;2023-04-25T20:17:26;11.60;99.90
19174;DHT22;9719;49.322;8.536;2023-04-25T20:22:28;11.50;99.90
19174;DHT22;9719;49.322;8.536;2023-04-25T20:27:35;11.50;99.90
19174;DHT22;9719;49.322;8.536;2023-04-25T20:32:39;11.40;99.90
19174;DHT22;9719;49.322;8.536;2023-04-25T20:37:41;11.40;99.90
19174;DHT22;9719;49.322;8.536;2023-04-25T20:42:43;11.40;99.90
19174;DHT22;9719;49.322;8.536;2023-04-25T20:47:46;11.40;99.90
19174;DHT22;9719;49.322;8.536;2023-04-25T20:52:48;11.30;99.90
19174;DHT22;9719;49.322;8.536;2023-04-25T20:57:50;11.30;99.90
19174;DHT22;9719;49.322;8.536;2023-04-25T21:02:54;11.20;99.90
19174;DHT22;9719;49.322;8.536;2023-04-25T21:07:55;11.20;99.90
19174;DHT22;9719;49.322;8.536;2023-04-25T21:12:57;11.10;99.90
19174;DHT22;9719;49.322;8.536;2023-04-25T21:18:00;11.00;99.90
19174;DHT22;9719;49.322;8.536;2023-04-25T21:23:02;10.90;99.90
19174;DHT22;9719;49.322;8.536;2023-04-25T21:28:03;10.80;99.90
19174;DHT22;9719;49.322;8.536;2023-04-25T21:33:07;10.70;99.90
19174;DHT22;9719;49.322;8.536;2023-04-25T21:38:08;10.60;99.90
19174;DHT22;9719;49.322;8.536;2023-04-25T21:43:11;10.40;99.90
19174;DHT22;9719;49.322;8.536;2023-04-25T21:48:14;10.30;99.90
19174;DHT22;9719;49.322;8.536;2023-04-25T21:53:16;10.20;99.90
19174;DHT22;9719;49.322;8.536;2023-04-25T21:58:18;10.10;99.90
19174;DHT22;9719;49.322;8.536;2023-04-25T22:03:21;10.00;99.90
19174;DHT22;9719;49.322;8.536;2023-04-25T22:08:23;10.00;99.90
19174;DHT22;9719;49.322;8.536;2023-04-25T22:13:24;10.00;99.90
19174;DHT22;9719;49.322;8.536;2023-04-25T22:18:29;9.90;99.90
19174;DHT22;9719;49.322;8.536;2023-04-25T22:23:30;9.90;99.90
19174;DHT22;9719;49.322;8.536;2023-04-25T22:28:32;9.90;99.90
19174;DHT22;9719;49.322;8.536;2023-04-25T22:33:36;10.00;99.90
19174;DHT22;9719;49.322;8.536;2023-04-25T22:38:37;10.00;99.90
19174;DHT22;9719;49.322;8.536;2023-04-25T22:43:40;9.90;99.90
19174;DHT22;9719;49.322;8.536;2023-04-25T22:48:43;9.90;99.90
19174;DHT22;9719;49.322;8.536;2023-04-25T22:53:45;9.90;99.90
19174;DHT22;9719;49.322;8.536;2023-04-25T22:58:46;9.80;99.90
19174;DHT22;9719;49.322;8.536;2023-04-25T23:03:51;9.60;99.90
19174;DHT22;9719;49.322;8.536;2023-04-25T23:08:53;9.50;99.90
19174;DHT22;9719;49.322;8.536;2023-04-25T23:13:54;9.40;99.90
19174;DHT22;9719;49.322;8.536;2023-04-25T23:18:59;9.20;99.90
19174;DHT22;9719;49.322;8.536;2023-04-25T23:24:01;9.10;99.90
19174;DHT22;9719;49.322;8.536;2023-04-25T23:29:03;8.90;99.90
19174;DHT22;9719;49.322;8.536;2023-04-25T23:34:06;8.80;99.90
19174;DHT22;9719;49.322;8.536;2023-04-25T23:39:08;8.70;99.90
19174;DHT22;9719;49.322;8.536;2023-04-25T23:44:09;8.60;99.90
19174;DHT22;9719;49.322;8.536;2023-04-25T23:49:13;8.50;99.90
19174;DHT22;9719;49.322;8.536;2023-04-25T23:54:14;8.40;99.90
19174;DHT22;9719;49.322;8.536;2023-04-25T23:59:16;8.30;99.90
